createdAt,value
2023-01-17T00:02:04.319Z,4.73
2023-01-17T00:05:25.882Z,4.85
2023-01-17T00:08:46.804Z,4.85
2023-01-17T00:11:49.568Z,4.89
2023-01-17T00:14:54.586Z,4.85
2023-01-17T00:17:58.022Z,4.86
2023-01-17T00:21:35.893Z,4.81
2023-01-17T00:24:57.416Z,4.81
2023-01-17T00:28:00.158Z,4.87
2023-01-17T00:31:04.060Z,4.91
2023-01-17T00:34:06.364Z,4.77
2023-01-17T00:37:08.893Z,4.95
2023-01-17T00:40:11.537Z,4.86
2023-01-17T00:43:36.788Z,5.05
2023-01-17T00:46:57.648Z,5.03
2023-01-17T00:50:18.847Z,5.08
2023-01-17T00:53:39.839Z,5.11
2023-01-17T00:57:01.200Z,5.13
2023-01-17T01:00:23.651Z,5.10
2023-01-17T01:03:44.806Z,5.10
2023-01-17T01:07:05.872Z,5.17
2023-01-17T01:10:27.870Z,5.21
2023-01-17T01:13:50.849Z,5.25
2023-01-17T01:17:11.750Z,5.28
2023-01-17T01:20:32.526Z,5.19
2023-01-17T01:23:54.262Z,5.16
2023-01-17T01:27:15.106Z,5.14
2023-01-17T01:30:36.396Z,5.16
2023-01-17T01:33:39.034Z,5.22
2023-01-17T01:36:41.655Z,5.17
2023-01-17T01:39:44.080Z,5.21
2023-01-17T01:42:57.439Z,5.18
2023-01-17T01:45:59.814Z,5.19
2023-01-17T01:49:29.672Z,5.22
2023-01-17T01:52:34.751Z,5.16
2023-01-17T01:55:40.881Z,5.11
2023-01-17T01:58:49.396Z,5.03
2023-01-17T02:01:55.364Z,5.08
2023-01-17T02:04:59.777Z,5.17
2023-01-17T02:08:08.326Z,5.15
2023-01-17T02:11:11.666Z,5.17
2023-01-17T02:14:18.492Z,5.17
2023-01-17T02:17:29.991Z,5.18
2023-01-17T02:20:57.220Z,5.20
2023-01-17T02:24:15.197Z,5.18
2023-01-17T02:27:55.838Z,5.18
2023-01-17T02:31:08.994Z,5.16
2023-01-17T02:34:25.246Z,5.10
2023-01-17T02:37:49.177Z,5.10
2023-01-17T02:41:07.889Z,5.17
2023-01-17T02:44:15.379Z,5.15
2023-01-17T02:47:28.041Z,5.03
2023-01-17T02:51:03.074Z,5.16
2023-01-17T02:54:28.356Z,5.12
2023-01-17T02:57:37.114Z,5.14
2023-01-17T03:00:57.950Z,5.12
2023-01-17T03:04:50.182Z,5.06
2023-01-17T03:07:53.808Z,5.12
2023-01-17T03:10:57.426Z,5.18
2023-01-17T03:13:59.900Z,5.18
2023-01-17T03:17:02.656Z,5.12
2023-01-17T03:20:05.476Z,5.22
2023-01-17T03:23:08.148Z,5.22
2023-01-17T03:26:10.517Z,5.24
2023-01-17T03:29:13.860Z,5.18
2023-01-17T03:32:16.139Z,5.20
2023-01-17T03:35:18.858Z,5.27
2023-01-17T03:38:21.209Z,5.23
2023-01-17T03:41:23.899Z,5.28
2023-01-17T03:44:26.300Z,5.29
2023-01-17T03:47:28.959Z,5.31
2023-01-17T03:50:31.470Z,5.29
2023-01-17T03:53:34.138Z,5.33
2023-01-17T03:56:36.486Z,5.30
2023-01-17T03:59:39.138Z,5.33
2023-01-17T04:02:41.616Z,5.37
2023-01-17T04:05:44.268Z,5.38
2023-01-17T04:08:46.629Z,5.40
2023-01-17T04:11:50.959Z,5.39
2023-01-17T04:14:53.469Z,5.39
2023-01-17T04:17:56.601Z,5.40
2023-01-17T04:20:58.913Z,5.44
2023-01-17T04:24:01.542Z,5.34
2023-01-17T04:27:07.068Z,5.48
2023-01-17T04:30:10.485Z,5.48
2023-01-17T04:33:12.863Z,5.55
2023-01-17T04:36:15.513Z,5.57
2023-01-17T04:39:17.935Z,5.60
2023-01-17T04:42:20.578Z,5.51
2023-01-17T04:45:23.176Z,5.54
2023-01-17T04:48:27.263Z,5.54
2023-01-17T04:51:29.654Z,5.57
2023-01-17T04:54:32.324Z,5.53
2023-01-17T04:57:34.870Z,5.57
2023-01-17T05:00:37.490Z,5.62
2023-01-17T05:03:39.925Z,5.66
2023-01-17T05:06:43.257Z,5.66
2023-01-17T05:09:45.654Z,5.66
2023-01-17T05:12:59.176Z,5.68
2023-01-17T05:16:01.519Z,5.66
2023-01-17T05:19:04.320Z,5.68
2023-01-17T05:22:14.877Z,5.69
2023-01-17T05:25:17.667Z,5.58
2023-01-17T05:28:20.014Z,5.69
2023-01-17T05:31:22.754Z,5.64
2023-01-17T05:34:25.246Z,5.64
2023-01-17T05:37:27.844Z,5.55
2023-01-17T05:40:32.954Z,5.53
2023-01-17T05:43:35.585Z,5.62
2023-01-17T05:46:37.999Z,5.68
2023-01-17T05:49:40.675Z,5.66
2023-01-17T05:52:49.777Z,5.63
2023-01-17T05:55:52.773Z,5.69
2023-01-17T05:58:55.222Z,5.60
2023-01-17T06:01:58.205Z,5.57
2023-01-17T06:05:03.271Z,5.62
2023-01-17T06:08:06.050Z,5.61
2023-01-17T06:11:08.819Z,5.65
2023-01-17T06:14:11.222Z,5.53
2023-01-17T06:17:13.835Z,5.53
2023-01-17T06:20:16.254Z,5.45
2023-01-17T06:23:19.052Z,5.38
2023-01-17T06:26:21.418Z,5.41
2023-01-17T06:29:24.133Z,5.44
2023-01-17T06:32:26.471Z,5.48
2023-01-17T06:35:29.583Z,5.43
2023-01-17T06:38:34.833Z,5.37
2023-01-17T06:41:37.701Z,5.25
2023-01-17T06:44:40.034Z,5.24
2023-01-17T06:47:42.953Z,5.27
2023-01-17T06:50:46.733Z,5.17
2023-01-17T06:53:49.450Z,5.22
2023-01-17T06:56:51.892Z,5.27
2023-01-17T06:59:54.522Z,5.22
2023-01-17T07:02:56.851Z,5.26
2023-01-17T07:06:02.203Z,5.30
2023-01-17T07:09:04.797Z,5.32
2023-01-17T07:12:07.729Z,5.36
2023-01-17T07:15:11.194Z,5.34
2023-01-17T07:18:14.739Z,5.36
2023-01-17T07:21:17.277Z,5.38
2023-01-17T07:24:21.479Z,5.40
2023-01-17T07:27:24.819Z,5.34
2023-01-17T07:30:27.818Z,5.36
2023-01-17T07:33:30.166Z,5.34
2023-01-17T07:36:33.434Z,5.38
2023-01-17T07:39:37.328Z,5.39
2023-01-17T07:42:40.012Z,5.42
2023-01-17T07:45:50.736Z,5.18
2023-01-17T07:48:53.422Z,5.20
2023-01-17T07:51:55.812Z,5.19
2023-01-17T07:54:58.613Z,5.15
2023-01-17T07:58:02.947Z,5.03
2023-01-17T08:01:09.152Z,5.12
2023-01-17T08:04:11.952Z,5.28
2023-01-17T08:07:14.536Z,5.30
2023-01-17T08:10:19.964Z,5.23
2023-01-17T08:13:22.512Z,5.27
2023-01-17T08:16:25.758Z,5.23
2023-01-17T08:19:28.111Z,5.08
2023-01-17T08:22:31.107Z,5.04
2023-01-17T08:25:35.382Z,5.10
2023-01-17T08:28:38.149Z,4.85
2023-01-17T08:31:40.668Z,4.94
2023-01-17T08:34:43.350Z,5.00
2023-01-17T08:37:46.340Z,5.33
2023-01-17T08:40:49.142Z,5.77
2023-01-17T08:43:52.126Z,5.88
2023-01-17T08:46:54.760Z,5.82
2023-01-17T08:49:59.644Z,5.91
2023-01-17T08:53:02.307Z,6.04
2023-01-17T08:56:05.798Z,6.19
2023-01-17T08:59:11.895Z,6.09
2023-01-17T09:02:15.791Z,6.09
2023-01-17T09:05:18.451Z,6.02
2023-01-17T09:08:20.927Z,6.05
2023-01-17T09:11:23.583Z,6.23
2023-01-17T09:14:25.971Z,6.22
2023-01-17T09:17:29.085Z,6.24
2023-01-17T09:20:31.697Z,5.92
2023-01-17T09:23:34.301Z,5.99
2023-01-17T09:26:36.683Z,6.42
2023-01-17T09:29:39.315Z,6.44
2023-01-17T09:32:41.759Z,6.70
2023-01-17T09:35:45.084Z,6.79
2023-01-17T09:38:47.987Z,6.83
2023-01-17T09:42:26.156Z,6.91
2023-01-17T09:45:31.982Z,6.87
2023-01-17T09:48:38.789Z,6.80
2023-01-17T09:51:42.448Z,6.95
2023-01-17T09:54:48.089Z,7.12
2023-01-17T09:58:10.137Z,6.99
2023-01-17T10:01:31.676Z,6.84
2023-01-17T10:04:58.616Z,6.97
2023-01-17T10:08:16.661Z,6.98
2023-01-17T10:11:40.147Z,7.12
2023-01-17T10:15:03.174Z,7.04
2023-01-17T10:18:30.377Z,7.36
2023-01-17T10:22:02.345Z,7.37
2023-01-17T10:25:23.224Z,7.32
2023-01-17T10:28:33.565Z,7.35
2023-01-17T10:31:51.204Z,7.55
2023-01-17T10:34:53.697Z,7.28
2023-01-17T10:37:58.521Z,7.31
2023-01-17T10:41:21.970Z,7.59
2023-01-17T10:44:35.437Z,7.65
2023-01-17T10:47:39.504Z,7.81
2023-01-17T10:51:04.945Z,7.51
2023-01-17T10:54:24.218Z,7.62
2023-01-17T10:57:28.195Z,7.78
2023-01-17T11:00:52.393Z,7.89
2023-01-17T11:03:55.423Z,8.01
2023-01-17T11:07:24.725Z,8.06
2023-01-17T11:10:48.968Z,8.06
2023-01-17T11:13:53.332Z,8.03
2023-01-17T11:17:04.612Z,7.97
2023-01-17T11:20:35.257Z,8.01
2023-01-17T11:23:41.228Z,8.24
2023-01-17T11:26:49.573Z,8.42
2023-01-17T11:30:07.642Z,8.43
2023-01-17T11:33:45.348Z,8.54
2023-01-17T11:36:50.055Z,8.52
2023-01-17T11:40:08.134Z,8.53
2023-01-17T11:43:18.724Z,8.57
2023-01-17T11:46:21.882Z,8.54
2023-01-17T11:49:25.553Z,8.40
2023-01-17T11:52:37.587Z,8.62
2023-01-17T11:55:40.843Z,8.62
2023-01-17T11:58:45.899Z,8.71
2023-01-17T12:02:01.199Z,8.52
2023-01-17T12:05:15.370Z,8.51
2023-01-17T12:08:20.810Z,8.65
2023-01-17T12:12:07.285Z,8.81
2023-01-17T12:15:21.393Z,8.75
2023-01-17T12:18:33.562Z,8.69
2023-01-17T12:21:46.630Z,8.67
2023-01-17T12:24:52.305Z,8.72
2023-01-17T12:28:06.493Z,8.65
2023-01-17T12:31:44.687Z,8.74
2023-01-17T12:34:57.308Z,8.67
2023-01-17T12:38:11.398Z,8.46
2023-01-17T12:41:30.416Z,8.57
2023-01-17T12:45:07.561Z,8.63
2023-01-17T12:48:16.691Z,8.59
2023-01-17T12:51:29.032Z,8.48
2023-01-17T12:54:39.797Z,8.53
2023-01-17T12:57:47.797Z,8.47
2023-01-17T13:00:59.711Z,8.43
2023-01-17T13:04:09.056Z,8.41
2023-01-17T13:07:33.067Z,8.40
2023-01-17T13:10:58.773Z,8.36
2023-01-17T13:14:02.361Z,8.29
2023-01-17T13:17:22.543Z,8.21
2023-01-17T13:20:58.304Z,8.15
2023-01-17T13:24:03.900Z,8.15
2023-01-17T13:27:12.684Z,8.20
2023-01-17T13:30:34.605Z,8.16
2023-01-17T13:33:47.800Z,8.15
2023-01-17T13:37:00.727Z,8.06
2023-01-17T13:40:05.710Z,8.10
2023-01-17T13:43:22.193Z,8.07
2023-01-17T13:46:24.569Z,8.01
2023-01-17T13:49:34.693Z,8.01
2023-01-17T13:52:38.255Z,7.99
2023-01-17T13:55:46.827Z,7.86
2023-01-17T13:58:54.540Z,7.77
2023-01-17T14:01:57.720Z,7.76
2023-01-17T14:05:32.097Z,7.78
2023-01-17T14:08:38.770Z,7.65
2023-01-17T14:12:09.115Z,7.61
2023-01-17T14:15:23.008Z,7.58
2023-01-17T14:18:38.129Z,7.60
2023-01-17T14:21:40.673Z,7.61
2023-01-17T14:25:00.990Z,7.54
2023-01-17T14:28:19.031Z,7.52
2023-01-17T14:31:24.300Z,7.58
2023-01-17T14:34:26.836Z,7.52
2023-01-17T14:37:46.568Z,7.59
2023-01-17T14:41:02.726Z,7.46
2023-01-17T14:44:05.402Z,7.50
2023-01-17T14:47:13.895Z,7.54
2023-01-17T14:50:23.677Z,7.52
2023-01-17T14:53:31.687Z,7.47
2023-01-17T14:56:34.472Z,7.49
2023-01-17T14:59:36.798Z,7.49
2023-01-17T15:02:44.179Z,7.36
2023-01-17T15:05:51.033Z,7.43
2023-01-17T15:08:54.268Z,7.36
2023-01-17T15:11:58.097Z,7.44
2023-01-17T15:15:01.666Z,7.40
2023-01-17T15:18:27.590Z,7.46
2023-01-17T15:21:35.494Z,7.45
2023-01-17T15:24:43.481Z,7.35
2023-01-17T15:27:46.072Z,7.35
2023-01-17T15:31:03.752Z,7.43
2023-01-17T15:34:14.123Z,7.37
2023-01-17T15:37:40.663Z,7.45
2023-01-17T15:40:43.719Z,7.45
2023-01-17T15:43:46.403Z,7.45
2023-01-17T15:46:49.130Z,7.44
2023-01-17T15:49:52.198Z,7.41
2023-01-17T15:53:06.034Z,7.27
2023-01-17T15:56:31.940Z,7.26
2023-01-17T15:59:50.471Z,7.33
2023-01-17T16:02:59.038Z,7.33
2023-01-17T16:06:03.046Z,7.25
2023-01-17T16:09:22.355Z,7.33
2023-01-17T16:12:25.056Z,7.23
2023-01-17T16:15:28.877Z,7.30
2023-01-17T16:18:31.673Z,7.29
2023-01-17T16:21:34.125Z,7.31
2023-01-17T16:24:37.238Z,7.23
2023-01-17T16:27:41.504Z,7.31
2023-01-17T16:30:45.177Z,7.23
2023-01-17T16:33:49.473Z,7.22
2023-01-17T16:36:54.444Z,7.24
2023-01-17T16:39:57.117Z,7.28
2023-01-17T16:43:01.114Z,7.23
2023-01-17T16:46:03.628Z,7.24
2023-01-17T16:49:06.439Z,7.22
2023-01-17T16:52:08.902Z,7.21
2023-01-17T16:55:15.031Z,7.16
2023-01-17T16:58:20.440Z,7.12
2023-01-17T17:01:23.683Z,6.99
2023-01-17T17:04:26.127Z,6.99
2023-01-17T17:07:28.831Z,6.91
2023-01-17T17:10:31.552Z,6.85
2023-01-17T17:13:36.031Z,6.75
2023-01-17T17:16:39.140Z,6.66
2023-01-17T17:19:41.855Z,6.57
2023-01-17T17:22:50.294Z,6.53
2023-01-17T17:25:56.894Z,6.50
2023-01-17T17:28:59.335Z,6.45
2023-01-17T17:32:02.111Z,6.44
2023-01-17T17:35:05.223Z,6.38
2023-01-17T17:38:08.010Z,6.34
2023-01-17T17:41:10.377Z,6.33
2023-01-17T17:44:13.238Z,6.22
2023-01-17T17:47:16.175Z,6.24
2023-01-17T17:50:18.969Z,6.25
2023-01-17T17:53:21.791Z,6.14
2023-01-17T17:56:24.582Z,6.20
2023-01-17T17:59:27.015Z,6.14
2023-01-17T18:02:31.619Z,6.17
2023-01-17T18:05:34.392Z,6.20
2023-01-17T18:08:38.487Z,6.14
2023-01-17T18:11:43.342Z,6.08
2023-01-17T18:14:45.714Z,6.01
2023-01-17T18:17:52.496Z,6.04
2023-01-17T18:20:55.048Z,6.01
2023-01-17T18:24:00.308Z,6.00
2023-01-17T18:27:02.857Z,6.01
2023-01-17T18:30:06.150Z,6.00
2023-01-17T18:33:09.852Z,5.93
2023-01-17T18:36:13.353Z,5.95
2023-01-17T18:39:27.291Z,5.90
2023-01-17T18:42:31.152Z,5.89
2023-01-17T18:45:33.517Z,5.96
2023-01-17T18:48:37.182Z,5.93
2023-01-17T18:51:39.571Z,5.87
2023-01-17T18:54:42.276Z,5.82
2023-01-17T18:57:44.710Z,5.73
2023-01-17T19:00:50.330Z,5.75
2023-01-17T19:03:56.386Z,5.79
2023-01-17T19:06:59.014Z,5.68
2023-01-17T19:10:02.130Z,5.73
2023-01-17T19:13:04.855Z,5.67
2023-01-17T19:16:09.709Z,5.53
2023-01-17T19:19:14.812Z,5.61
2023-01-17T19:22:17.752Z,5.56
2023-01-17T19:25:21.192Z,5.55
2023-01-17T19:28:23.781Z,5.42
2023-01-17T19:31:28.562Z,5.43
2023-01-17T19:34:31.325Z,5.38
2023-01-17T19:37:34.318Z,5.43
2023-01-17T19:40:36.895Z,5.37
2023-01-17T19:43:39.881Z,5.33
2023-01-17T19:46:42.418Z,5.26
2023-01-17T19:49:45.695Z,5.23
2023-01-17T19:52:48.178Z,5.22
2023-01-17T19:55:51.089Z,5.18
2023-01-17T19:58:54.042Z,5.18
2023-01-17T20:01:59.446Z,5.17
2023-01-17T20:05:02.545Z,5.14
2023-01-17T20:08:05.026Z,5.16
2023-01-17T20:11:10.896Z,5.14
2023-01-17T20:14:14.993Z,5.10
2023-01-17T20:17:17.841Z,5.02
2023-01-17T20:20:22.806Z,5.00
2023-01-17T20:23:25.597Z,4.99
2023-01-17T20:26:36.769Z,4.98
2023-01-17T20:29:40.766Z,4.96
2023-01-17T20:32:43.110Z,4.98
2023-01-17T20:35:46.260Z,4.91
2023-01-17T20:38:49.097Z,4.82
2023-01-17T20:41:52.110Z,4.72
2023-01-17T20:44:54.480Z,4.72
2023-01-17T20:47:57.477Z,4.79
2023-01-17T20:51:10.561Z,4.72
2023-01-17T20:54:17.852Z,4.68
2023-01-17T20:57:20.281Z,4.58
2023-01-17T21:00:22.978Z,4.54
2023-01-17T21:03:29.615Z,4.47
2023-01-17T21:06:32.290Z,4.39
2023-01-17T21:09:34.713Z,4.42
2023-01-17T21:12:37.521Z,4.43
2023-01-17T21:15:48.099Z,4.23
2023-01-17T21:18:52.326Z,4.25
2023-01-17T21:21:56.271Z,4.17
2023-01-17T21:25:00.309Z,4.12
2023-01-17T21:28:05.915Z,4.26
2023-01-17T21:31:20.451Z,4.22
2023-01-17T21:34:25.459Z,4.18
2023-01-17T21:37:28.297Z,4.04
2023-01-17T21:40:31.233Z,3.97
2023-01-17T21:43:34.418Z,3.85
2023-01-17T21:46:39.218Z,3.80
2023-01-17T21:49:41.930Z,3.89
2023-01-17T21:52:46.517Z,3.84
2023-01-17T21:56:08.825Z,3.76
2023-01-17T21:59:11.178Z,3.84
2023-01-17T22:02:13.851Z,3.75
2023-01-17T22:05:18.028Z,3.74
2023-01-17T22:08:20.669Z,3.66
2023-01-17T22:11:25.890Z,3.77
2023-01-17T22:14:28.234Z,3.63
2023-01-17T22:17:30.982Z,3.59
2023-01-17T22:20:34.210Z,3.61
2023-01-17T22:23:36.848Z,3.75
2023-01-17T22:26:41.808Z,3.66
2023-01-17T22:29:44.575Z,3.70
2023-01-17T22:32:46.999Z,3.76
2023-01-17T22:35:57.791Z,3.70
2023-01-17T22:39:00.904Z,3.83
2023-01-17T22:42:03.682Z,3.85
2023-01-17T22:45:07.835Z,3.73
2023-01-17T22:48:10.650Z,3.84
2023-01-17T22:51:15.374Z,3.90
2023-01-17T22:54:19.421Z,3.88
2023-01-17T22:57:23.242Z,3.89
2023-01-17T23:00:25.945Z,3.85
2023-01-17T23:03:28.400Z,3.94
2023-01-17T23:06:36.986Z,4.04
2023-01-17T23:09:39.261Z,3.99
2023-01-17T23:12:41.995Z,4.11
2023-01-17T23:16:02.962Z,4.20
2023-01-17T23:19:23.911Z,4.23
2023-01-17T23:22:29.125Z,4.22
2023-01-17T23:25:31.702Z,4.31
2023-01-17T23:28:34.211Z,4.34
2023-01-17T23:31:36.864Z,4.39
2023-01-17T23:34:39.214Z,4.39
2023-01-17T23:38:00.684Z,4.42
2023-01-17T23:41:24.727Z,4.41
2023-01-17T23:44:31.682Z,4.43
2023-01-17T23:47:34.119Z,4.53
2023-01-17T23:50:41.760Z,4.45
2023-01-17T23:53:44.049Z,4.51
2023-01-17T23:56:46.684Z,4.60
2023-01-17T23:59:49.033Z,4.55
